Isles of Scilly, United Kingdom
Current Conditions -  °F | °C
As of 3:50 PM on Monday 24 Nov 2014 (Local Time) from EGDR Reporting Station
Few Clouds Few Clouds  
Wind Chill: 41°   Ceiling: Unl
Heat Index: 45°   Visibility: 6mi
Dew Point: 34°   Wind: 6mph
Humidity: 66%   Direction: 50°NE
Pressure: 30.3"   Gusts: NA
Location:  49.91°N, 6.31°W
Report Text: EGDR 241550Z 05005KT 9999 FEW022 07/01 Q1026 BLU NOSIG
Loading
Personal Weather Stations






























Interactive Weather Map New forecast layout! Learn more

10-Day Weather Forecast

Advertisements
Track Severe Weather on mobile